sensor_id;sensor_type;location;lat;lon;timestamp;P1;durP1;ratioP1;P2;durP2;ratioP2
32250;SDS011;41295;48.518;9.206;2023-02-22T00:01:35;16.15;;;8.25;;
32250;SDS011;41295;48.518;9.206;2023-02-22T00:03:52;13.80;;;7.55;;
32250;SDS011;41295;48.518;9.206;2023-02-22T00:05:56;13.77;;;7.82;;
32250;SDS011;41295;48.518;9.206;2023-02-22T00:08:00;16.45;;;8.27;;
32250;SDS011;41295;48.518;9.206;2023-02-22T00:10:02;14.95;;;8.55;;
32250;SDS011;41295;48.518;9.206;2023-02-22T00:12:09;16.17;;;9.45;;
32250;SDS011;41295;48.518;9.206;2023-02-22T00:14:11;18.38;;;8.38;;
32250;SDS011;41295;48.518;9.206;2023-02-22T00:16:14;13.45;;;8.25;;
32250;SDS011;41295;48.518;9.206;2023-02-22T00:18:18;20.27;;;9.32;;
32250;SDS011;41295;48.518;9.206;2023-02-22T00:20:22;16.55;;;8.35;;
32250;SDS011;41295;48.518;9.206;2023-02-22T00:22:25;15.02;;;8.02;;
32250;SDS011;41295;48.518;9.206;2023-02-22T00:24:27;13.73;;;8.07;;
32250;SDS011;41295;48.518;9.206;2023-02-22T00:26:31;16.08;;;7.80;;
32250;SDS011;41295;48.518;9.206;2023-02-22T00:28:35;17.20;;;8.27;;
32250;SDS011;41295;48.518;9.206;2023-02-22T00:30:38;15.40;;;7.88;;
32250;SDS011;41295;48.518;9.206;2023-02-22T00:32:44;15.18;;;7.95;;
32250;SDS011;41295;48.518;9.206;2023-02-22T00:34:49;14.88;;;7.38;;
32250;SDS011;41295;48.518;9.206;2023-02-22T00:36:54;16.55;;;8.00;;
32250;SDS011;41295;48.518;9.206;2023-02-22T00:38:57;13.90;;;8.23;;
32250;SDS011;41295;48.518;9.206;2023-02-22T00:40:59;12.15;;;7.30;;
32250;SDS011;41295;48.518;9.206;2023-02-22T00:43:03;17.80;;;7.60;;
32250;SDS011;41295;48.518;9.206;2023-02-22T00:45:07;13.77;;;7.65;;
32250;SDS011;41295;48.518;9.206;2023-02-22T00:47:10;15.27;;;8.20;;
32250;SDS011;41295;48.518;9.206;2023-02-22T00:49:12;12.82;;;7.75;;
32250;SDS011;41295;48.518;9.206;2023-02-22T00:51:15;15.32;;;8.70;;
32250;SDS011;41295;48.518;9.206;2023-02-22T00:53:19;15.85;;;8.75;;
32250;SDS011;41295;48.518;9.206;2023-02-22T00:55:24;13.77;;;8.50;;
32250;SDS011;41295;48.518;9.206;2023-02-22T00:57:27;16.13;;;8.73;;
32250;SDS011;41295;48.518;9.206;2023-02-22T00:59:30;13.90;;;8.30;;
32250;SDS011;41295;48.518;9.206;2023-02-22T01:01:32;16.17;;;8.63;;
32250;SDS011;41295;48.518;9.206;2023-02-22T01:03:35;19.23;;;8.38;;
32250;SDS011;41295;48.518;9.206;2023-02-22T01:05:41;15.48;;;8.27;;
32250;SDS011;41295;48.518;9.206;2023-02-22T01:07:44;18.20;;;8.68;;
32250;SDS011;41295;48.518;9.206;2023-02-22T01:09:49;15.00;;;8.75;;
32250;SDS011;41295;48.518;9.206;2023-02-22T01:11:52;16.58;;;7.78;;
32250;SDS011;41295;48.518;9.206;2023-02-22T01:13:56;16.50;;;8.60;;
32250;SDS011;41295;48.518;9.206;2023-02-22T01:16:00;14.98;;;8.27;;
32250;SDS011;41295;48.518;9.206;2023-02-22T01:18:03;13.40;;;7.53;;
32250;SDS011;41295;48.518;9.206;2023-02-22T01:20:07;13.57;;;8.52;;
32250;SDS011;41295;48.518;9.206;2023-02-22T01:22:12;16.20;;;8.32;;
32250;SDS011;41295;48.518;9.206;2023-02-22T01:24:15;15.50;;;8.15;;
32250;SDS011;41295;48.518;9.206;2023-02-22T01:26:20;19.33;;;8.27;;
32250;SDS011;41295;48.518;9.206;2023-02-22T01:28:23;14.98;;;8.32;;
32250;SDS011;41295;48.518;9.206;2023-02-22T01:30:27;15.23;;;8.20;;
32250;SDS011;41295;48.518;9.206;2023-02-22T01:32:34;14.80;;;8.30;;
32250;SDS011;41295;48.518;9.206;2023-02-22T01:34:37;16.23;;;8.50;;
32250;SDS011;41295;48.518;9.206;2023-02-22T01:36:40;12.65;;;7.50;;
32250;SDS011;41295;48.518;9.206;2023-02-22T01:38:43;18.00;;;8.10;;
32250;SDS011;41295;48.518;9.206;2023-02-22T01:40:46;15.10;;;8.18;;
32250;SDS011;41295;48.518;9.206;2023-02-22T01:42:52;15.90;;;9.15;;
32250;SDS011;41295;48.518;9.206;2023-02-22T01:47:52;18.00;;;10.20;;
32250;SDS011;41295;48.518;9.206;2023-02-22T01:49:55;18.77;;;10.63;;
32250;SDS011;41295;48.518;9.206;2023-02-22T01:51:58;19.23;;;9.50;;
32250;SDS011;41295;48.518;9.206;2023-02-22T01:54:05;16.83;;;9.07;;
32250;SDS011;41295;48.518;9.206;2023-02-22T01:56:14;14.55;;;7.85;;
32250;SDS011;41295;48.518;9.206;2023-02-22T01:58:18;14.02;;;8.23;;
32250;SDS011;41295;48.518;9.206;2023-02-22T02:00:23;16.02;;;8.82;;
32250;SDS011;41295;48.518;9.206;2023-02-22T02:02:27;17.17;;;8.50;;
32250;SDS011;41295;48.518;9.206;2023-02-22T02:04:31;16.73;;;8.43;;
32250;SDS011;41295;48.518;9.206;2023-02-22T02:06:35;15.95;;;8.52;;
32250;SDS011;41295;48.518;9.206;2023-02-22T02:08:41;15.57;;;8.32;;
32250;SDS011;41295;48.518;9.206;2023-02-22T02:10:50;14.73;;;9.05;;
32250;SDS011;41295;48.518;9.206;2023-02-22T02:12:54;16.35;;;8.55;;
32250;SDS011;41295;48.518;9.206;2023-02-22T02:17:19;14.38;;;7.68;;
32250;SDS011;41295;48.518;9.206;2023-02-22T02:19:27;14.85;;;7.85;;
32250;SDS011;41295;48.518;9.206;2023-02-22T02:27:13;17.50;;;7.85;;
32250;SDS011;41295;48.518;9.206;2023-02-22T02:32:11;11.85;;;7.28;;
32250;SDS011;41295;48.518;9.206;2023-02-22T02:34:22;13.95;;;7.45;;
32250;SDS011;41295;48.518;9.206;2023-02-22T02:36:32;16.15;;;7.72;;
32250;SDS011;41295;48.518;9.206;2023-02-22T02:38:45;13.93;;;7.47;;
32250;SDS011;41295;48.518;9.206;2023-02-22T02:40:54;13.80;;;7.45;;
32250;SDS011;41295;48.518;9.206;2023-02-22T02:43:06;15.00;;;8.07;;
32250;SDS011;41295;48.518;9.206;2023-02-22T02:45:14;11.30;;;7.47;;
32250;SDS011;41295;48.518;9.206;2023-02-22T02:47:22;17.92;;;7.65;;
32250;SDS011;41295;48.518;9.206;2023-02-22T02:49:29;12.23;;;6.88;;
32250;SDS011;41295;48.518;9.206;2023-02-22T02:51:37;11.63;;;6.75;;
32250;SDS011;41295;48.518;9.206;2023-02-22T02:53:43;13.23;;;6.63;;
32250;SDS011;41295;48.518;9.206;2023-02-22T02:55:51;14.05;;;6.85;;
32250;SDS011;41295;48.518;9.206;2023-02-22T02:57:54;12.52;;;6.57;;
32250;SDS011;41295;48.518;9.206;2023-02-22T02:59:56;12.15;;;6.88;;
32250;SDS011;41295;48.518;9.206;2023-02-22T03:02:03;14.15;;;6.65;;
32250;SDS011;41295;48.518;9.206;2023-02-22T03:04:19;11.48;;;6.32;;
32250;SDS011;41295;48.518;9.206;2023-02-22T03:06:38;14.52;;;7.05;;
32250;SDS011;41295;48.518;9.206;2023-02-22T03:08:52;11.98;;;6.80;;
32250;SDS011;41295;48.518;9.206;2023-02-22T03:11:04;12.80;;;6.55;;
32250;SDS011;41295;48.518;9.206;2023-02-22T03:13:18;15.07;;;6.80;;
32250;SDS011;41295;48.518;9.206;2023-02-22T03:15:33;10.70;;;6.73;;
32250;SDS011;41295;48.518;9.206;2023-02-22T03:17:45;8.48;;;6.03;;
32250;SDS011;41295;48.518;9.206;2023-02-22T03:19:57;15.80;;;6.18;;
32250;SDS011;41295;48.518;9.206;2023-02-22T03:22:04;12.32;;;7.25;;
32250;SDS011;41295;48.518;9.206;2023-02-22T03:24:15;13.25;;;7.13;;
32250;SDS011;41295;48.518;9.206;2023-02-22T03:26:23;11.20;;;6.82;;
32250;SDS011;41295;48.518;9.206;2023-02-22T03:28:32;12.38;;;6.50;;
32250;SDS011;41295;48.518;9.206;2023-02-22T03:30:41;14.82;;;7.20;;
32250;SDS011;41295;48.518;9.206;2023-02-22T03:32:50;12.93;;;6.63;;
32250;SDS011;41295;48.518;9.206;2023-02-22T03:34:59;15.60;;;7.43;;
32250;SDS011;41295;48.518;9.206;2023-02-22T03:37:07;18.00;;;6.15;;
32250;SDS011;41295;48.518;9.206;2023-02-22T03:39:16;9.98;;;6.20;;
32250;SDS011;41295;48.518;9.206;2023-02-22T03:41:21;14.95;;;6.80;;
32250;SDS011;41295;48.518;9.206;2023-02-22T03:43:26;13.02;;;7.05;;
32250;SDS011;41295;48.518;9.206;2023-02-22T03:45:34;14.15;;;7.70;;
32250;SDS011;41295;48.518;9.206;2023-02-22T03:47:39;12.05;;;7.15;;
32250;SDS011;41295;48.518;9.206;2023-02-22T03:49:46;15.75;;;8.13;;
32250;SDS011;41295;48.518;9.206;2023-02-22T03:51:54;13.85;;;7.50;;
32250;SDS011;41295;48.518;9.206;2023-02-22T03:53:57;17.33;;;8.50;;
32250;SDS011;41295;48.518;9.206;2023-02-22T03:56:00;21.05;;;8.27;;
32250;SDS011;41295;48.518;9.206;2023-02-22T03:58:08;14.05;;;7.68;;
32250;SDS011;41295;48.518;9.206;2023-02-22T04:00:14;14.45;;;8.40;;
32250;SDS011;41295;48.518;9.206;2023-02-22T04:02:21;17.90;;;8.90;;
32250;SDS011;41295;48.518;9.206;2023-02-22T04:04:24;11.52;;;7.45;;
32250;SDS011;41295;48.518;9.206;2023-02-22T04:06:27;13.77;;;7.75;;
32250;SDS011;41295;48.518;9.206;2023-02-22T04:08:32;15.00;;;7.45;;
32250;SDS011;41295;48.518;9.206;2023-02-22T04:10:35;16.80;;;7.97;;
32250;SDS011;41295;48.518;9.206;2023-02-22T04:12:38;11.40;;;7.38;;
32250;SDS011;41295;48.518;9.206;2023-02-22T04:14:41;14.95;;;8.20;;
32250;SDS011;41295;48.518;9.206;2023-02-22T04:16:43;14.57;;;7.72;;
32250;SDS011;41295;48.518;9.206;2023-02-22T04:18:46;15.73;;;7.53;;
32250;SDS011;41295;48.518;9.206;2023-02-22T04:20:48;11.77;;;7.47;;
32250;SDS011;41295;48.518;9.206;2023-02-22T04:22:52;15.43;;;8.10;;
32250;SDS011;41295;48.518;9.206;2023-02-22T04:24:56;11.80;;;7.93;;
32250;SDS011;41295;48.518;9.206;2023-02-22T04:26:59;11.93;;;7.53;;
32250;SDS011;41295;48.518;9.206;2023-02-22T04:29:02;12.32;;;7.13;;
32250;SDS011;41295;48.518;9.206;2023-02-22T04:31:04;14.35;;;7.40;;
32250;SDS011;41295;48.518;9.206;2023-02-22T04:33:07;15.32;;;7.18;;
32250;SDS011;41295;48.518;9.206;2023-02-22T04:35:10;12.55;;;6.72;;
32250;SDS011;41295;48.518;9.206;2023-02-22T04:37:13;14.85;;;7.22;;
32250;SDS011;41295;48.518;9.206;2023-02-22T04:39:16;12.00;;;6.78;;
32250;SDS011;41295;48.518;9.206;2023-02-22T04:41:20;16.08;;;8.52;;
32250;SDS011;41295;48.518;9.206;2023-02-22T04:43:25;11.38;;;7.20;;
32250;SDS011;41295;48.518;9.206;2023-02-22T04:45:28;15.30;;;7.43;;
32250;SDS011;41295;48.518;9.206;2023-02-22T04:47:30;16.67;;;7.55;;
32250;SDS011;41295;48.518;9.206;2023-02-22T04:49:33;16.15;;;6.90;;
32250;SDS011;41295;48.518;9.206;2023-02-22T04:51:39;15.23;;;6.90;;
32250;SDS011;41295;48.518;9.206;2023-02-22T04:53:42;13.38;;;6.70;;
32250;SDS011;41295;48.518;9.206;2023-02-22T04:55:45;14.30;;;6.50;;
32250;SDS011;41295;48.518;9.206;2023-02-22T04:57:49;13.80;;;7.30;;
32250;SDS011;41295;48.518;9.206;2023-02-22T04:59:52;14.77;;;6.93;;
32250;SDS011;41295;48.518;9.206;2023-02-22T05:01:54;11.68;;;7.43;;
32250;SDS011;41295;48.518;9.206;2023-02-22T05:03:57;15.63;;;7.88;;
32250;SDS011;41295;48.518;9.206;2023-02-22T05:05:59;12.40;;;7.30;;
32250;SDS011;41295;48.518;9.206;2023-02-22T05:08:05;14.98;;;6.53;;
32250;SDS011;41295;48.518;9.206;2023-02-22T05:10:08;14.55;;;6.30;;
32250;SDS011;41295;48.518;9.206;2023-02-22T05:12:11;10.70;;;6.47;;
32250;SDS011;41295;48.518;9.206;2023-02-22T05:14:15;15.32;;;6.90;;
32250;SDS011;41295;48.518;9.206;2023-02-22T05:16:18;13.60;;;7.55;;
32250;SDS011;41295;48.518;9.206;2023-02-22T05:18:20;11.68;;;6.90;;
32250;SDS011;41295;48.518;9.206;2023-02-22T05:20:25;11.13;;;6.45;;
32250;SDS011;41295;48.518;9.206;2023-02-22T05:22:30;10.45;;;6.40;;
32250;SDS011;41295;48.518;9.206;2023-02-22T05:24:33;10.90;;;6.18;;
32250;SDS011;41295;48.518;9.206;2023-02-22T05:26:35;11.15;;;6.25;;
32250;SDS011;41295;48.518;9.206;2023-02-22T05:28:38;12.45;;;6.63;;
32250;SDS011;41295;48.518;9.206;2023-02-22T05:30:42;12.10;;;6.63;;
32250;SDS011;41295;48.518;9.206;2023-02-22T05:32:45;11.68;;;6.32;;
32250;SDS011;41295;48.518;9.206;2023-02-22T05:34:48;12.20;;;6.53;;
32250;SDS011;41295;48.518;9.206;2023-02-22T05:36:50;11.82;;;5.82;;
32250;SDS011;41295;48.518;9.206;2023-02-22T05:38:53;10.30;;;5.90;;
32250;SDS011;41295;48.518;9.206;2023-02-22T05:40:56;10.43;;;5.55;;
32250;SDS011;41295;48.518;9.206;2023-02-22T05:42:58;10.57;;;6.30;;
32250;SDS011;41295;48.518;9.206;2023-02-22T05:45:02;11.25;;;6.80;;
32250;SDS011;41295;48.518;9.206;2023-02-22T05:47:06;10.73;;;6.80;;
32250;SDS011;41295;48.518;9.206;2023-02-22T05:49:09;11.45;;;6.93;;
32250;SDS011;41295;48.518;9.206;2023-02-22T05:51:11;11.18;;;5.93;;
32250;SDS011;41295;48.518;9.206;2023-02-22T05:53:14;12.30;;;6.05;;
32250;SDS011;41295;48.518;9.206;2023-02-22T05:55:18;12.95;;;6.40;;
32250;SDS011;41295;48.518;9.206;2023-02-22T05:57:22;11.57;;;6.60;;
32250;SDS011;41295;48.518;9.206;2023-02-22T05:59:25;11.30;;;6.43;;
32250;SDS011;41295;48.518;9.206;2023-02-22T06:01:28;12.13;;;6.50;;
32250;SDS011;41295;48.518;9.206;2023-02-22T06:03:32;20.48;;;7.43;;
32250;SDS011;41295;48.518;9.206;2023-02-22T06:05:34;12.30;;;7.60;;
32250;SDS011;41295;48.518;9.206;2023-02-22T06:07:38;11.07;;;6.35;;
32250;SDS011;41295;48.518;9.206;2023-02-22T06:09:40;11.63;;;7.05;;
32250;SDS011;41295;48.518;9.206;2023-02-22T06:11:43;14.38;;;6.80;;
32250;SDS011;41295;48.518;9.206;2023-02-22T06:13:49;13.30;;;6.70;;
32250;SDS011;41295;48.518;9.206;2023-02-22T06:15:52;13.85;;;7.35;;
32250;SDS011;41295;48.518;9.206;2023-02-22T06:17:55;10.50;;;6.40;;
32250;SDS011;41295;48.518;9.206;2023-02-22T06:20:00;18.15;;;7.85;;
32250;SDS011;41295;48.518;9.206;2023-02-22T06:22:03;12.38;;;6.93;;
32250;SDS011;41295;48.518;9.206;2023-02-22T06:24:05;14.20;;;6.53;;
32250;SDS011;41295;48.518;9.206;2023-02-22T06:26:08;12.18;;;7.28;;
32250;SDS011;41295;48.518;9.206;2023-02-22T06:28:11;12.57;;;6.80;;
32250;SDS011;41295;48.518;9.206;2023-02-22T06:30:14;12.93;;;7.32;;
32250;SDS011;41295;48.518;9.206;2023-02-22T06:32:18;12.50;;;7.25;;
32250;SDS011;41295;48.518;9.206;2023-02-22T06:34:21;15.05;;;7.43;;
32250;SDS011;41295;48.518;9.206;2023-02-22T06:36:25;14.10;;;7.65;;
32250;SDS011;41295;48.518;9.206;2023-02-22T06:38:28;11.70;;;7.55;;
32250;SDS011;41295;48.518;9.206;2023-02-22T06:40:30;13.77;;;8.15;;
32250;SDS011;41295;48.518;9.206;2023-02-22T06:42:33;14.57;;;7.35;;
32250;SDS011;41295;48.518;9.206;2023-02-22T06:44:35;13.65;;;7.18;;
32250;SDS011;41295;48.518;9.206;2023-02-22T06:46:38;12.85;;;6.72;;
32250;SDS011;41295;48.518;9.206;2023-02-22T06:48:40;14.40;;;7.03;;
32250;SDS011;41295;48.518;9.206;2023-02-22T06:50:43;13.80;;;7.15;;
32250;SDS011;41295;48.518;9.206;2023-02-22T06:52:47;12.48;;;7.47;;
32250;SDS011;41295;48.518;9.206;2023-02-22T06:54:50;12.73;;;7.38;;
32250;SDS011;41295;48.518;9.206;2023-02-22T06:56:52;17.58;;;7.93;;
32250;SDS011;41295;48.518;9.206;2023-02-22T06:58:55;21.27;;;7.78;;
32250;SDS011;41295;48.518;9.206;2023-02-22T07:00:58;10.80;;;6.88;;
32250;SDS011;41295;48.518;9.206;2023-02-22T07:03:03;13.80;;;7.13;;
32250;SDS011;41295;48.518;9.206;2023-02-22T07:05:06;16.42;;;7.68;;
32250;SDS011;41295;48.518;9.206;2023-02-22T07:07:09;16.83;;;8.02;;
32250;SDS011;41295;48.518;9.206;2023-02-22T07:09:13;13.48;;;7.28;;
32250;SDS011;41295;48.518;9.206;2023-02-22T07:11:16;14.35;;;7.55;;
32250;SDS011;41295;48.518;9.206;2023-02-22T07:13:19;18.63;;;7.78;;
32250;SDS011;41295;48.518;9.206;2023-02-22T07:15:22;11.55;;;7.40;;
32250;SDS011;41295;48.518;9.206;2023-02-22T07:17:26;10.85;;;7.20;;
32250;SDS011;41295;48.518;9.206;2023-02-22T07:19:29;22.45;;;8.30;;
32250;SDS011;41295;48.518;9.206;2023-02-22T07:21:31;13.68;;;7.45;;
32250;SDS011;41295;48.518;9.206;2023-02-22T07:23:34;16.75;;;7.80;;
32250;SDS011;41295;48.518;9.206;2023-02-22T07:25:38;15.57;;;8.25;;
32250;SDS011;41295;48.518;9.206;2023-02-22T07:27:41;15.35;;;8.50;;
32250;SDS011;41295;48.518;9.206;2023-02-22T07:29:43;14.35;;;8.48;;
32250;SDS011;41295;48.518;9.206;2023-02-22T07:31:46;14.63;;;8.40;;
32250;SDS011;41295;48.518;9.206;2023-02-22T07:33:49;14.90;;;7.65;;
32250;SDS011;41295;48.518;9.206;2023-02-22T07:35:52;15.80;;;7.93;;
32250;SDS011;41295;48.518;9.206;2023-02-22T07:37:55;16.60;;;7.47;;
32250;SDS011;41295;48.518;9.206;2023-02-22T07:39:58;14.68;;;7.53;;
32250;SDS011;41295;48.518;9.206;2023-02-22T07:42:02;12.82;;;7.30;;
32250;SDS011;41295;48.518;9.206;2023-02-22T07:44:05;15.00;;;7.95;;
32250;SDS011;41295;48.518;9.206;2023-02-22T07:46:07;13.07;;;8.32;;
32250;SDS011;41295;48.518;9.206;2023-02-22T07:48:10;16.38;;;8.65;;
32250;SDS011;41295;48.518;9.206;2023-02-22T07:50:15;13.73;;;8.20;;
32250;SDS011;41295;48.518;9.206;2023-02-22T07:52:20;17.77;;;8.52;;
32250;SDS011;41295;48.518;9.206;2023-02-22T07:54:23;14.30;;;8.10;;
32250;SDS011;41295;48.518;9.206;2023-02-22T07:56:25;16.33;;;8.25;;
32250;SDS011;41295;48.518;9.206;2023-02-22T07:58:29;13.70;;;8.13;;
32250;SDS011;41295;48.518;9.206;2023-02-22T08:00:33;17.65;;;8.93;;
32250;SDS011;41295;48.518;9.206;2023-02-22T08:02:37;16.88;;;8.82;;
32250;SDS011;41295;48.518;9.206;2023-02-22T08:04:40;13.63;;;7.63;;
32250;SDS011;41295;48.518;9.206;2023-02-22T08:06:42;21.73;;;8.85;;
32250;SDS011;41295;48.518;9.206;2023-02-22T08:08:46;16.40;;;8.30;;
32250;SDS011;41295;48.518;9.206;2023-02-22T08:10:49;15.55;;;8.02;;
32250;SDS011;41295;48.518;9.206;2023-02-22T08:12:53;14.52;;;8.20;;
32250;SDS011;41295;48.518;9.206;2023-02-22T08:14:57;15.30;;;8.95;;
32250;SDS011;41295;48.518;9.206;2023-02-22T08:17:00;16.95;;;8.50;;
32250;SDS011;41295;48.518;9.206;2023-02-22T08:19:03;14.20;;;8.18;;
32250;SDS011;41295;48.518;9.206;2023-02-22T08:21:05;16.30;;;8.75;;
32250;SDS011;41295;48.518;9.206;2023-02-22T08:23:08;13.20;;;8.52;;
32250;SDS011;41295;48.518;9.206;2023-02-22T08:25:12;13.57;;;7.75;;
32250;SDS011;41295;48.518;9.206;2023-02-22T08:27:16;14.25;;;8.02;;
32250;SDS011;41295;48.518;9.206;2023-02-22T08:29:23;13.40;;;8.23;;
32250;SDS011;41295;48.518;9.206;2023-02-22T08:31:34;14.25;;;8.48;;
32250;SDS011;41295;48.518;9.206;2023-02-22T08:33:37;15.60;;;7.90;;
32250;SDS011;41295;48.518;9.206;2023-02-22T08:35:40;15.35;;;7.63;;
32250;SDS011;41295;48.518;9.206;2023-02-22T08:37:43;23.75;;;7.90;;
32250;SDS011;41295;48.518;9.206;2023-02-22T08:39:46;12.10;;;7.22;;
32250;SDS011;41295;48.518;9.206;2023-02-22T08:41:49;13.82;;;7.78;;
32250;SDS011;41295;48.518;9.206;2023-02-22T08:43:51;17.08;;;7.93;;
32250;SDS011;41295;48.518;9.206;2023-02-22T08:45:54;12.40;;;7.10;;
32250;SDS011;41295;48.518;9.206;2023-02-22T08:47:59;12.07;;;7.15;;
32250;SDS011;41295;48.518;9.206;2023-02-22T08:50:02;13.77;;;7.40;;
32250;SDS011;41295;48.518;9.206;2023-02-22T08:52:05;13.50;;;6.70;;
32250;SDS011;41295;48.518;9.206;2023-02-22T08:54:07;18.88;;;7.72;;
32250;SDS011;41295;48.518;9.206;2023-02-22T08:56:10;12.55;;;6.93;;
32250;SDS011;41295;48.518;9.206;2023-02-22T08:58:13;11.73;;;6.45;;
32250;SDS011;41295;48.518;9.206;2023-02-22T09:00:16;16.27;;;7.65;;
32250;SDS011;41295;48.518;9.206;2023-02-22T09:02:20;14.88;;;6.82;;
32250;SDS011;41295;48.518;9.206;2023-02-22T09:04:24;11.52;;;6.72;;
32250;SDS011;41295;48.518;9.206;2023-02-22T09:06:27;23.65;;;7.10;;
32250;SDS011;41295;48.518;9.206;2023-02-22T09:08:30;15.75;;;6.72;;
32250;SDS011;41295;48.518;9.206;2023-02-22T09:10:33;15.18;;;7.63;;
32250;SDS011;41295;48.518;9.206;2023-02-22T09:12:36;15.00;;;7.55;;
32250;SDS011;41295;48.518;9.206;2023-02-22T09:14:39;14.05;;;6.95;;
32250;SDS011;41295;48.518;9.206;2023-02-22T09:16:43;12.32;;;7.38;;
32250;SDS011;41295;48.518;9.206;2023-02-22T09:18:46;15.98;;;7.00;;
32250;SDS011;41295;48.518;9.206;2023-02-22T09:20:50;11.02;;;6.60;;
32250;SDS011;41295;48.518;9.206;2023-02-22T09:22:53;15.45;;;7.22;;
32250;SDS011;41295;48.518;9.206;2023-02-22T09:24:56;15.32;;;6.50;;
32250;SDS011;41295;48.518;9.206;2023-02-22T09:27:08;10.55;;;6.82;;
32250;SDS011;41295;48.518;9.206;2023-02-22T09:29:12;13.00;;;7.28;;
32250;SDS011;41295;48.518;9.206;2023-02-22T09:31:15;11.10;;;6.28;;
32250;SDS011;41295;48.518;9.206;2023-02-22T09:33:18;12.68;;;6.60;;
32250;SDS011;41295;48.518;9.206;2023-02-22T09:35:22;16.05;;;6.70;;
32250;SDS011;41295;48.518;9.206;2023-02-22T09:37:28;14.48;;;7.15;;
32250;SDS011;41295;48.518;9.206;2023-02-22T09:39:31;11.68;;;6.70;;
32250;SDS011;41295;48.518;9.206;2023-02-22T09:41:38;13.35;;;6.60;;
32250;SDS011;41295;48.518;9.206;2023-02-22T09:43:51;13.50;;;6.70;;
32250;SDS011;41295;48.518;9.206;2023-02-22T09:46:08;13.52;;;7.25;;
32250;SDS011;41295;48.518;9.206;2023-02-22T09:48:20;12.48;;;6.70;;
32250;SDS011;41295;48.518;9.206;2023-02-22T09:50:27;13.50;;;7.40;;
32250;SDS011;41295;48.518;9.206;2023-02-22T09:52:38;11.77;;;6.30;;
32250;SDS011;41295;48.518;9.206;2023-02-22T09:54:45;14.77;;;6.45;;
32250;SDS011;41295;48.518;9.206;2023-02-22T09:56:52;17.77;;;6.72;;
32250;SDS011;41295;48.518;9.206;2023-02-22T09:58:59;11.98;;;6.90;;
32250;SDS011;41295;48.518;9.206;2023-02-22T10:01:09;11.48;;;6.63;;
32250;SDS011;41295;48.518;9.206;2023-02-22T10:03:21;19.42;;;7.20;;
32250;SDS011;41295;48.518;9.206;2023-02-22T10:05:30;14.15;;;7.25;;
32250;SDS011;41295;48.518;9.206;2023-02-22T10:07:39;12.85;;;6.35;;
32250;SDS011;41295;48.518;9.206;2023-02-22T10:09:48;18.13;;;6.93;;
32250;SDS011;41295;48.518;9.206;2023-02-22T10:11:54;22.13;;;9.05;;
32250;SDS011;41295;48.518;9.206;2023-02-22T10:14:01;11.90;;;6.95;;
32250;SDS011;41295;48.518;9.206;2023-02-22T10:16:17;12.77;;;7.45;;
32250;SDS011;41295;48.518;9.206;2023-02-22T10:18:45;15.45;;;7.90;;
32250;SDS011;41295;48.518;9.206;2023-02-22T10:21:00;23.13;;;9.60;;
32250;SDS011;41295;48.518;9.206;2023-02-22T10:23:15;20.52;;;10.25;;
32250;SDS011;41295;48.518;9.206;2023-02-22T10:25:26;23.50;;;11.57;;
32250;SDS011;41295;48.518;9.206;2023-02-22T10:27:36;23.15;;;10.27;;
32250;SDS011;41295;48.518;9.206;2023-02-22T10:29:42;14.80;;;8.75;;
32250;SDS011;41295;48.518;9.206;2023-02-22T10:31:49;15.15;;;6.80;;
32250;SDS011;41295;48.518;9.206;2023-02-22T10:33:56;15.95;;;7.93;;
32250;SDS011;41295;48.518;9.206;2023-02-22T10:36:01;13.75;;;7.53;;
32250;SDS011;41295;48.518;9.206;2023-02-22T10:38:09;13.60;;;7.15;;
32250;SDS011;41295;48.518;9.206;2023-02-22T10:40:18;13.50;;;8.02;;
32250;SDS011;41295;48.518;9.206;2023-02-22T10:42:24;13.02;;;8.15;;
32250;SDS011;41295;48.518;9.206;2023-02-22T10:44:29;14.40;;;7.32;;
32250;SDS011;41295;48.518;9.206;2023-02-22T10:46:31;15.05;;;7.40;;
32250;SDS011;41295;48.518;9.206;2023-02-22T10:48:35;12.40;;;6.97;;
32250;SDS011;41295;48.518;9.206;2023-02-22T10:50:42;10.75;;;6.32;;
32250;SDS011;41295;48.518;9.206;2023-02-22T10:52:46;12.93;;;7.28;;
32250;SDS011;41295;48.518;9.206;2023-02-22T10:54:50;15.00;;;7.38;;
32250;SDS011;41295;48.518;9.206;2023-02-22T10:57:06;12.13;;;6.20;;
32250;SDS011;41295;48.518;9.206;2023-02-22T10:59:09;13.65;;;6.28;;
32250;SDS011;41295;48.518;9.206;2023-02-22T11:01:20;13.05;;;6.85;;
32250;SDS011;41295;48.518;9.206;2023-02-22T11:03:27;14.00;;;6.95;;
32250;SDS011;41295;48.518;9.206;2023-02-22T11:05:32;13.05;;;7.28;;
32250;SDS011;41295;48.518;9.206;2023-02-22T11:07:37;12.10;;;7.90;;
32250;SDS011;41295;48.518;9.206;2023-02-22T11:09:46;10.45;;;5.95;;
32250;SDS011;41295;48.518;9.206;2023-02-22T11:12:07;14.57;;;6.90;;
32250;SDS011;41295;48.518;9.206;2023-02-22T11:14:12;15.38;;;6.38;;
32250;SDS011;41295;48.518;9.206;2023-02-22T11:16:26;16.55;;;6.22;;
32250;SDS011;41295;48.518;9.206;2023-02-22T11:18:34;9.27;;;5.90;;
32250;SDS011;41295;48.518;9.206;2023-02-22T11:20:40;13.75;;;5.70;;
32250;SDS011;41295;48.518;9.206;2023-02-22T11:22:42;9.45;;;6.00;;
32250;SDS011;41295;48.518;9.206;2023-02-22T11:24:52;9.43;;;6.05;;
32250;SDS011;41295;48.518;9.206;2023-02-22T11:26:58;14.07;;;6.55;;
32250;SDS011;41295;48.518;9.206;2023-02-22T11:29:10;10.15;;;6.55;;
32250;SDS011;41295;48.518;9.206;2023-02-22T11:31:19;14.23;;;6.28;;
32250;SDS011;41295;48.518;9.206;2023-02-22T11:33:24;16.35;;;6.63;;
32250;SDS011;41295;48.518;9.206;2023-02-22T11:35:31;12.15;;;5.78;;
32250;SDS011;41295;48.518;9.206;2023-02-22T11:37:37;14.30;;;6.18;;
32250;SDS011;41295;48.518;9.206;2023-02-22T11:39:39;12.23;;;6.18;;
32250;SDS011;41295;48.518;9.206;2023-02-22T11:41:44;15.57;;;6.43;;
32250;SDS011;41295;48.518;9.206;2023-02-22T11:43:49;13.40;;;6.25;;
32250;SDS011;41295;48.518;9.206;2023-02-22T11:45:57;11.65;;;5.85;;
32250;SDS011;41295;48.518;9.206;2023-02-22T11:48:05;15.68;;;6.40;;
32250;SDS011;41295;48.518;9.206;2023-02-22T11:50:09;12.77;;;6.18;;
32250;SDS011;41295;48.518;9.206;2023-02-22T11:52:23;11.55;;;6.45;;
32250;SDS011;41295;48.518;9.206;2023-02-22T11:54:35;12.50;;;6.43;;
32250;SDS011;41295;48.518;9.206;2023-02-22T11:56:47;17.60;;;6.82;;
32250;SDS011;41295;48.518;9.206;2023-02-22T11:58:52;13.00;;;6.88;;
32250;SDS011;41295;48.518;9.206;2023-02-22T12:01:06;13.25;;;6.78;;
32250;SDS011;41295;48.518;9.206;2023-02-22T12:03:22;14.15;;;6.40;;
32250;SDS011;41295;48.518;9.206;2023-02-22T12:05:39;13.60;;;7.53;;
32250;SDS011;41295;48.518;9.206;2023-02-22T12:08:03;16.13;;;8.20;;
32250;SDS011;41295;48.518;9.206;2023-02-22T12:10:23;14.77;;;8.52;;
32250;SDS011;41295;48.518;9.206;2023-02-22T12:12:37;16.40;;;8.35;;
32250;SDS011;41295;48.518;9.206;2023-02-22T12:14:50;14.77;;;7.68;;
32250;SDS011;41295;48.518;9.206;2023-02-22T12:17:08;12.82;;;7.13;;
32250;SDS011;41295;48.518;9.206;2023-02-22T12:19:21;13.88;;;6.72;;
32250;SDS011;41295;48.518;9.206;2023-02-22T12:21:30;15.48;;;6.07;;
32250;SDS011;41295;48.518;9.206;2023-02-22T12:23:39;16.02;;;7.40;;
32250;SDS011;41295;48.518;9.206;2023-02-22T12:25:49;14.68;;;7.05;;
32250;SDS011;41295;48.518;9.206;2023-02-22T12:27:59;18.83;;;6.28;;
32250;SDS011;41295;48.518;9.206;2023-02-22T12:30:25;14.63;;;7.78;;
32250;SDS011;41295;48.518;9.206;2023-02-22T12:32:33;13.38;;;6.78;;
32250;SDS011;41295;48.518;9.206;2023-02-22T12:34:42;12.85;;;6.32;;
32250;SDS011;41295;48.518;9.206;2023-02-22T12:36:50;13.48;;;5.93;;
32250;SDS011;41295;48.518;9.206;2023-02-22T12:38:58;13.70;;;6.45;;